Terminal Aerodrome Forecast
Issued by NWS

Home | Current Version | Previous Version | Text Only | Print | Product List | Glossary On
Versions: 1 2 3 4 5 6 7 8 9 10 11 12 13 14 15
000
FTUS41 KPBZ 170540
TAFZZV
TAF
KZZV 170540Z 1706/1806 VRB03KT P6SM BKN100
     FM171500 18005KT P6SM VCSH BKN050
     FM171800 20008KT P6SM VCTS BKN035CB
     FM172200 20007KT 5SM -SHRA VCTS OVC050CB=

USA.gov is the U.S. government's official web portal to all federal, state and local government web resources and services.